VOHY/HYD METAR and TAF weather

Enter ICAO airport designator
Station Type Date Time Source
VOHY METAR 2021/07/28 16:30 UTC NOAA

VOHY 281630Z 27005KT 6000 SCT015 BKN100 24/21 Q1009 NOSIG


Station Type Date Time Source
VOHY Decoded METAR 2021/07/28 16:30 UTC NOAA

Hyderabad Airport, India (VOHY) 17-27N 078-28E 545M
Jul 28, 2021 - 12:30 PM EDT / 2021.07.28 1630 UTC
Wind: from the W (270 degrees) at 6 MPH (5 KT):0
Visibility: 3 mile(s):0
Sky conditions: mostly cloudy
Temperature: 75 F (24 C)
Dew Point: 69 F (21 C)
Relative Humidity: 83%
Pressure (altimeter): 29.80 in. Hg (1009 hPa)
ob: VOHY 281630Z 27005KT 6000 SCT015 BKN100 24/21 Q1009 NOSIG
cycle: 16

Station Type Date Time Source
VOHY TAF 2021/07/12 12:00 UTC NOAA

TAF VOHY 121100Z 1212/1221 25006KT 5000 RA DZ BR SCT015 SCT025 OVC080
TEMPO 1212/1218 3000 TSRA FEW030CB

Example: see airport list